Union, Oregon
Current Conditions -  °F | °C
As of 1:15 PM on Sunday 23 Nov 2014 (Local Time) from KLGD Reporting Station
Clear Clear  
Wind Chill: 41°   Ceiling: Unl
Heat Index: 46°   Visibility: 10mi
Dew Point: 27°   Wind: 12mph
Humidity: 46%   Direction: 190°S
Pressure: 30.16"   Gusts: NA
Location:  45.21°N, 117.87°W
Report Text: KLGD 232115Z AUTO 19010KT 10SM CLR 08/M03 A3016 RMK AO1
Loading
Personal Weather Stations






























Interactive Weather Map New forecast layout! Learn more

10-Day Weather Forecast

Advertisements
Track Severe Weather on mobile